createdAt,value
2018-07-31T00:02:15.659Z,84.90
2018-07-31T00:04:44.205Z,84.10
2018-07-31T00:07:12.600Z,83.50
2018-07-31T00:09:41.040Z,83.10
2018-07-31T00:12:09.514Z,82.90
2018-07-31T00:14:37.917Z,82.40
2018-07-31T00:17:06.371Z,82.60
2018-07-31T00:19:34.795Z,82.60
2018-07-31T00:22:03.211Z,82.90
2018-07-31T00:24:31.791Z,82.90
2018-07-31T00:27:00.192Z,83.20
2018-07-31T00:29:28.615Z,83.20
2018-07-31T00:31:57.005Z,83.10
2018-07-31T00:34:25.395Z,83.80
2018-07-31T00:36:53.828Z,85.40
2018-07-31T00:39:22.216Z,84.10
2018-07-31T00:41:50.883Z,84.00
2018-07-31T00:44:19.296Z,84.00
2018-07-31T00:46:47.784Z,83.10
2018-07-31T00:49:16.208Z,82.90
2018-07-31T00:51:44.611Z,83.60
2018-07-31T00:54:13.099Z,83.90
2018-07-31T00:56:41.512Z,84.00
2018-07-31T00:59:09.915Z,84.80
2018-07-31T01:01:38.404Z,85.90
2018-07-31T01:04:07.044Z,87.70
2018-07-31T01:06:40.828Z,88.70
2018-07-31T01:09:10.165Z,89.30
2018-07-31T01:11:38.938Z,89.90
2018-07-31T01:14:08.181Z,89.90
2018-07-31T01:16:37.226Z,89.70
2018-07-31T01:19:05.818Z,90.00
2018-07-31T01:21:34.376Z,90.50
2018-07-31T01:24:02.757Z,90.80
2018-07-31T01:26:31.336Z,91.10
2018-07-31T01:28:59.824Z,91.50
2018-07-31T01:31:28.232Z,92.10
2018-07-31T01:33:56.637Z,92.10
2018-07-31T01:36:25.144Z,92.20
2018-07-31T01:38:53.572Z,92.20
2018-07-31T01:41:21.957Z,92.30
2018-07-31T01:43:50.567Z,92.30
2018-07-31T01:46:18.976Z,92.20
2018-07-31T01:48:47.489Z,92.20
2018-07-31T01:51:15.930Z,92.20
2018-07-31T01:53:44.345Z,91.80
2018-07-31T01:56:12.773Z,91.30
2018-07-31T01:58:41.198Z,90.90
2018-07-31T02:01:09.622Z,90.50
2018-07-31T02:03:38.033Z,90.20
2018-07-31T02:06:06.473Z,89.70
2018-07-31T02:08:34.862Z,89.50
2018-07-31T02:11:03.300Z,88.80
2018-07-31T02:13:31.694Z,88.20
2018-07-31T02:16:00.089Z,87.70
2018-07-31T02:18:28.511Z,88.70
2018-07-31T02:20:56.934Z,87.90
2018-07-31T02:23:25.310Z,87.60
2018-07-31T02:25:53.726Z,87.40
2018-07-31T02:28:22.269Z,88.00
2018-07-31T02:30:50.612Z,88.10
2018-07-31T02:33:19.004Z,87.90
2018-07-31T02:35:47.393Z,88.20
2018-07-31T02:38:15.833Z,88.60
2018-07-31T02:40:44.309Z,88.50
2018-07-31T02:43:12.814Z,88.30
2018-07-31T02:45:41.212Z,88.90
2018-07-31T02:48:09.612Z,89.10
2018-07-31T02:50:37.994Z,89.60
2018-07-31T02:53:06.387Z,88.70
2018-07-31T02:55:34.817Z,88.60
2018-07-31T02:58:03.272Z,88.80
2018-07-31T03:00:31.648Z,89.20
2018-07-31T03:03:00.028Z,89.50
2018-07-31T03:05:28.468Z,90.00
2018-07-31T03:07:56.859Z,90.30
2018-07-31T03:10:25.276Z,90.60
2018-07-31T03:12:53.680Z,91.10
2018-07-31T03:15:22.075Z,91.70
2018-07-31T03:17:50.488Z,92.20
2018-07-31T03:20:18.924Z,92.50
2018-07-31T03:22:47.342Z,92.50
2018-07-31T03:25:15.724Z,92.70
2018-07-31T03:27:44.127Z,92.70
2018-07-31T03:30:12.542Z,93.00
2018-07-31T03:32:40.924Z,93.00
2018-07-31T03:35:09.359Z,93.10
2018-07-31T03:37:37.750Z,93.30
2018-07-31T03:40:06.382Z,93.20
2018-07-31T03:42:34.720Z,93.10
2018-07-31T03:45:03.777Z,93.30
2018-07-31T03:47:32.165Z,93.50
2018-07-31T03:50:00.599Z,93.90
2018-07-31T03:52:28.982Z,94.20
2018-07-31T03:54:57.359Z,94.90
2018-07-31T03:57:26.020Z,95.00
2018-07-31T03:59:54.472Z,95.10
2018-07-31T04:02:23.016Z,95.10
2018-07-31T04:04:51.447Z,95.60
2018-07-31T04:07:19.851Z,95.50
2018-07-31T04:09:48.455Z,95.40
2018-07-31T04:12:16.839Z,95.60
2018-07-31T04:14:45.539Z,96.00
2018-07-31T04:17:13.970Z,96.60
2018-07-31T04:19:42.388Z,96.90
2018-07-31T04:22:10.874Z,96.80
2018-07-31T04:24:39.672Z,96.60
2018-07-31T04:27:08.063Z,96.30
2018-07-31T04:29:36.453Z,96.00
2018-07-31T04:32:04.851Z,96.00
2018-07-31T04:34:33.328Z,96.10
2018-07-31T04:37:01.811Z,96.30
2018-07-31T04:39:30.291Z,96.30
2018-07-31T04:41:58.861Z,96.30
2018-07-31T04:44:27.282Z,96.10
2018-07-31T04:46:55.688Z,96.10
2018-07-31T04:49:24.118Z,96.10
2018-07-31T04:51:52.571Z,96.10
2018-07-31T04:54:21.022Z,95.90
2018-07-31T04:56:49.932Z,95.70
2018-07-31T04:59:18.330Z,95.40
2018-07-31T05:01:46.859Z,95.10
2018-07-31T05:04:15.272Z,95.00
2018-07-31T05:06:43.708Z,94.90
2018-07-31T05:09:12.814Z,94.90
2018-07-31T05:11:41.708Z,95.10
2018-07-31T05:14:10.132Z,95.40
2018-07-31T05:16:38.575Z,95.80
2018-07-31T05:19:11.728Z,95.90
2018-07-31T05:21:40.962Z,95.90
2018-07-31T05:24:09.427Z,96.10
2018-07-31T05:26:37.834Z,96.30
2018-07-31T05:29:06.230Z,96.30
2018-07-31T05:31:35.034Z,96.40
2018-07-31T05:34:03.402Z,96.30
2018-07-31T05:36:31.818Z,95.90
2018-07-31T05:39:00.540Z,95.30
2018-07-31T05:41:28.939Z,94.30
2018-07-31T05:43:57.363Z,93.60
2018-07-31T05:46:25.920Z,92.80
2018-07-31T05:48:54.326Z,92.30
2018-07-31T05:51:22.828Z,91.90
2018-07-31T05:53:51.243Z,91.60
2018-07-31T05:56:19.651Z,91.20
2018-07-31T05:58:48.247Z,91.20
2018-07-31T06:01:16.683Z,90.70
2018-07-31T06:03:45.106Z,90.20
2018-07-31T06:06:13.541Z,89.80
2018-07-31T06:08:41.959Z,88.80
2018-07-31T06:11:10.360Z,88.00
2018-07-31T06:13:38.767Z,86.90
2018-07-31T06:16:07.203Z,85.50
2018-07-31T06:18:35.663Z,84.90
2018-07-31T06:21:04.223Z,84.20
2018-07-31T06:23:32.624Z,83.10
2018-07-31T06:26:01.109Z,82.60
2018-07-31T06:28:29.531Z,81.80
2018-07-31T06:30:59.271Z,82.30
2018-07-31T06:33:27.661Z,82.80
2018-07-31T06:35:56.151Z,85.10
2018-07-31T06:38:24.615Z,86.20
2018-07-31T06:40:53.331Z,87.30
2018-07-31T06:43:21.931Z,88.80
2018-07-31T06:45:50.338Z,89.80
2018-07-31T06:48:18.728Z,90.20
2018-07-31T06:50:47.174Z,90.70
2018-07-31T06:53:15.630Z,90.90
2018-07-31T06:55:44.232Z,91.00
2018-07-31T06:58:12.620Z,91.10
2018-07-31T07:00:41.032Z,91.30
2018-07-31T07:03:09.428Z,91.50
2018-07-31T07:05:37.858Z,91.70
2018-07-31T07:08:06.332Z,91.50
2018-07-31T07:10:34.757Z,91.50
2018-07-31T07:13:03.185Z,91.10
2018-07-31T07:15:31.599Z,90.70
2018-07-31T07:17:59.974Z,90.80
2018-07-31T07:20:28.359Z,91.10
2018-07-31T07:22:56.759Z,91.10
2018-07-31T07:25:25.212Z,90.90
2018-07-31T07:27:53.675Z,90.20
2018-07-31T07:30:22.072Z,88.80
2018-07-31T07:32:50.476Z,87.20
2018-07-31T07:35:18.976Z,85.80
2018-07-31T07:37:47.393Z,85.90
2018-07-31T07:40:15.895Z,86.20
2018-07-31T07:42:44.264Z,86.40
2018-07-31T07:45:12.631Z,86.00
2018-07-31T07:47:41.202Z,87.50
2018-07-31T07:50:09.601Z,88.20
2018-07-31T07:52:38.021Z,88.50
2018-07-31T07:55:06.418Z,87.80
2018-07-31T07:57:34.958Z,87.90
2018-07-31T08:00:03.520Z,88.10
2018-07-31T08:02:32.064Z,89.00
2018-07-31T08:05:01.429Z,88.40
2018-07-31T08:07:29.914Z,88.10
2018-07-31T08:09:58.336Z,86.50
2018-07-31T08:12:26.792Z,84.80
2018-07-31T08:14:55.218Z,82.40
2018-07-31T08:17:23.604Z,80.70
2018-07-31T08:19:52.016Z,80.00
2018-07-31T08:22:20.607Z,79.50
2018-07-31T08:24:48.983Z,79.80
2018-07-31T08:27:17.451Z,79.80
2018-07-31T08:29:45.976Z,78.80
2018-07-31T08:32:14.491Z,79.70
2018-07-31T08:34:42.915Z,78.00
2018-07-31T08:37:11.438Z,78.00
2018-07-31T08:39:39.810Z,77.10
2018-07-31T08:42:08.333Z,76.80
2018-07-31T08:44:36.739Z,74.40
2018-07-31T08:47:05.144Z,73.50
2018-07-31T08:49:33.516Z,73.20
2018-07-31T08:52:01.942Z,74.10
2018-07-31T08:54:30.383Z,74.10
2018-07-31T08:56:59.402Z,73.80
2018-07-31T08:59:27.926Z,74.30
2018-07-31T09:01:56.338Z,74.10
2018-07-31T09:04:24.754Z,74.50
2018-07-31T09:06:53.215Z,74.70
2018-07-31T09:09:21.626Z,74.00
2018-07-31T09:11:50.025Z,73.20
2018-07-31T09:14:18.438Z,73.50
2018-07-31T09:16:46.838Z,70.90
2018-07-31T09:19:15.328Z,69.10
2018-07-31T09:21:43.723Z,67.50
2018-07-31T09:24:12.312Z,66.50
2018-07-31T09:26:41.652Z,65.90
2018-07-31T09:29:10.048Z,65.40
2018-07-31T09:31:38.437Z,66.00
2018-07-31T09:34:07.033Z,65.90
2018-07-31T09:36:35.509Z,64.70
2018-07-31T09:39:06.319Z,64.00
2018-07-31T09:41:35.211Z,62.40
2018-07-31T09:44:03.795Z,60.60
2018-07-31T09:46:32.308Z,59.90
2018-07-31T09:49:00.710Z,58.10
2018-07-31T09:51:29.147Z,58.40
2018-07-31T09:53:57.674Z,58.10
2018-07-31T09:56:26.998Z,58.10
2018-07-31T09:58:55.404Z,58.10
2018-07-31T10:01:23.844Z,58.00
2018-07-31T10:03:52.272Z,56.90
2018-07-31T10:06:20.700Z,56.90
2018-07-31T10:08:49.353Z,57.90
2018-07-31T10:11:17.746Z,58.20
2018-07-31T10:13:46.172Z,58.50
2018-07-31T10:16:14.542Z,57.90
2018-07-31T10:18:43.038Z,56.70
2018-07-31T10:21:11.500Z,56.10
2018-07-31T10:23:39.972Z,56.00
2018-07-31T10:26:08.362Z,55.30
2018-07-31T10:28:36.784Z,55.90
2018-07-31T10:31:05.230Z,56.10
2018-07-31T10:33:33.573Z,56.30
2018-07-31T10:36:01.983Z,55.90
2018-07-31T10:38:30.403Z,56.20
2018-07-31T10:40:58.810Z,57.80
2018-07-31T10:43:27.221Z,57.70
2018-07-31T10:45:55.643Z,57.60
2018-07-31T10:48:24.103Z,56.30
2018-07-31T10:50:52.695Z,56.10
2018-07-31T10:53:21.073Z,55.20
2018-07-31T10:55:49.467Z,54.60
2018-07-31T10:58:17.926Z,53.70
2018-07-31T11:00:46.577Z,53.60
2018-07-31T11:03:15.041Z,52.30
2018-07-31T11:08:11.522Z,51.60
2018-07-31T11:10:40.123Z,51.80
2018-07-31T11:13:08.544Z,52.50
2018-07-31T11:15:37.088Z,53.20
2018-07-31T11:18:05.620Z,54.10
2018-07-31T11:20:34.116Z,54.70
2018-07-31T11:23:02.562Z,55.50
2018-07-31T11:25:30.992Z,56.10
2018-07-31T11:27:59.424Z,56.60
2018-07-31T11:30:27.904Z,56.50
2018-07-31T11:32:56.334Z,56.40
2018-07-31T11:35:24.915Z,56.10
2018-07-31T11:37:53.381Z,56.60
2018-07-31T11:40:21.819Z,56.40
2018-07-31T11:42:50.398Z,56.30
2018-07-31T11:45:18.836Z,56.00
2018-07-31T11:47:47.245Z,55.60
2018-07-31T11:50:15.704Z,55.60
2018-07-31T11:52:44.415Z,55.90
2018-07-31T11:55:12.803Z,56.40
2018-07-31T11:57:41.736Z,56.40
2018-07-31T12:00:11.830Z,56.30
2018-07-31T12:02:40.385Z,56.80
2018-07-31T12:05:09.062Z,56.70
2018-07-31T12:07:37.654Z,56.80
2018-07-31T12:10:06.586Z,56.10
2018-07-31T12:12:34.972Z,55.50
2018-07-31T12:15:03.425Z,55.20
2018-07-31T12:17:31.824Z,54.70
2018-07-31T12:20:00.203Z,54.40
2018-07-31T12:22:28.616Z,54.40
2018-07-31T12:24:57.041Z,54.10
2018-07-31T12:27:25.431Z,53.20
2018-07-31T12:29:53.832Z,52.30
2018-07-31T12:32:22.335Z,52.10
2018-07-31T12:34:50.716Z,52.80
2018-07-31T12:37:19.112Z,52.60
2018-07-31T12:39:48.478Z,53.20
2018-07-31T12:42:16.874Z,53.80
2018-07-31T12:44:45.684Z,53.80
2018-07-31T12:47:14.126Z,54.40
2018-07-31T12:49:42.617Z,52.90
2018-07-31T12:52:11.000Z,52.60
2018-07-31T12:54:39.388Z,52.70
2018-07-31T12:57:07.814Z,52.40
2018-07-31T12:59:36.397Z,52.30
2018-07-31T13:02:04.911Z,52.30
2018-07-31T13:04:33.301Z,52.00
2018-07-31T13:07:01.873Z,52.10
2018-07-31T13:09:30.259Z,52.60
2018-07-31T13:11:58.685Z,52.80
2018-07-31T13:14:27.071Z,53.20
2018-07-31T13:16:55.512Z,53.30
2018-07-31T13:19:23.908Z,53.10
2018-07-31T13:21:52.345Z,52.50
2018-07-31T13:24:20.773Z,52.30
2018-07-31T13:26:49.201Z,53.60
2018-07-31T13:29:17.591Z,53.40
2018-07-31T13:31:46.123Z,53.10
2018-07-31T13:34:14.503Z,52.60
2018-07-31T13:36:42.942Z,52.40
2018-07-31T13:39:11.539Z,51.80
2018-07-31T13:41:40.116Z,52.70
2018-07-31T13:44:08.725Z,52.30
2018-07-31T13:46:36.955Z,53.10
2018-07-31T13:49:05.651Z,52.90
2018-07-31T13:51:34.031Z,53.10
2018-07-31T13:54:02.415Z,52.80
2018-07-31T13:56:30.843Z,52.60
2018-07-31T13:58:59.240Z,52.50
2018-07-31T14:01:27.634Z,52.20
2018-07-31T14:03:56.103Z,52.40
2018-07-31T14:06:24.503Z,52.60
2018-07-31T14:08:53.083Z,52.50
2018-07-31T14:11:21.542Z,52.70
2018-07-31T14:13:50.205Z,52.70
2018-07-31T14:16:18.602Z,52.60
2018-07-31T14:18:47.040Z,52.90
2018-07-31T14:21:16.329Z,53.00
2018-07-31T14:23:44.732Z,53.50
2018-07-31T14:26:13.148Z,53.60
2018-07-31T14:28:41.669Z,53.60
2018-07-31T14:31:10.138Z,54.00
2018-07-31T14:33:38.528Z,54.10
2018-07-31T14:36:06.953Z,54.20
2018-07-31T14:38:35.368Z,54.10
2018-07-31T14:41:03.776Z,54.00
2018-07-31T14:43:32.255Z,53.50
2018-07-31T14:46:00.665Z,53.60
2018-07-31T14:48:29.137Z,53.10
2018-07-31T14:50:57.585Z,53.20
2018-07-31T14:53:25.960Z,52.60
2018-07-31T14:55:54.392Z,52.60
2018-07-31T14:58:22.803Z,52.70
2018-07-31T15:00:51.226Z,52.40
2018-07-31T15:03:19.655Z,52.50
2018-07-31T15:05:48.103Z,52.30
2018-07-31T15:08:16.571Z,52.20
2018-07-31T15:10:45.653Z,52.10
2018-07-31T15:13:14.017Z,52.10
2018-07-31T15:15:42.504Z,52.20
2018-07-31T15:18:10.964Z,52.20
2018-07-31T15:20:39.440Z,51.70
2018-07-31T15:23:07.884Z,51.60
2018-07-31T15:25:36.552Z,51.30
2018-07-31T15:28:05.002Z,51.70
2018-07-31T15:30:33.372Z,51.90
2018-07-31T15:33:01.931Z,51.80
2018-07-31T15:35:30.375Z,52.30
2018-07-31T15:37:58.786Z,52.10
2018-07-31T15:40:27.218Z,52.10
2018-07-31T15:42:55.691Z,51.90
2018-07-31T15:45:24.124Z,51.90
2018-07-31T15:47:52.505Z,52.20
2018-07-31T15:50:21.419Z,51.20
2018-07-31T15:52:49.839Z,51.80
2018-07-31T15:55:18.296Z,51.50
2018-07-31T15:57:46.700Z,51.80
2018-07-31T16:00:15.180Z,52.70
2018-07-31T16:02:43.512Z,53.00
2018-07-31T16:05:11.944Z,53.80
2018-07-31T16:07:40.346Z,53.00
2018-07-31T16:10:08.804Z,52.00
2018-07-31T16:12:37.447Z,52.10
2018-07-31T16:15:06.016Z,52.20
2018-07-31T16:17:34.618Z,56.60
2018-07-31T16:20:03.119Z,54.10
2018-07-31T16:22:31.689Z,51.00
2018-07-31T16:25:00.096Z,50.20
2018-07-31T16:27:28.520Z,50.20
2018-07-31T16:29:56.896Z,50.10
2018-07-31T16:32:25.320Z,49.50
2018-07-31T16:34:54.735Z,49.70
2018-07-31T16:37:23.204Z,50.40
2018-07-31T16:39:51.803Z,50.40
2018-07-31T16:42:20.432Z,50.20
2018-07-31T16:44:49.049Z,50.30
2018-07-31T16:47:17.503Z,50.00
2018-07-31T16:49:46.225Z,52.30
2018-07-31T16:52:14.787Z,50.00
2018-07-31T16:54:43.419Z,50.20
2018-07-31T16:57:12.084Z,49.40
2018-07-31T16:59:40.688Z,49.50
2018-07-31T17:02:09.082Z,49.40
2018-07-31T17:04:37.513Z,49.00
2018-07-31T17:07:05.937Z,48.90
2018-07-31T17:09:34.593Z,49.00
2018-07-31T17:12:03.914Z,48.50
2018-07-31T17:14:32.420Z,48.50
2018-07-31T17:17:00.887Z,48.80
2018-07-31T17:19:29.279Z,48.10
2018-07-31T17:21:57.721Z,47.80
2018-07-31T17:24:26.190Z,49.70
2018-07-31T17:26:55.099Z,51.10
2018-07-31T17:29:23.594Z,47.90
2018-07-31T17:31:52.072Z,48.00
2018-07-31T17:34:20.596Z,47.90
2018-07-31T17:36:49.001Z,47.80
2018-07-31T17:39:17.463Z,48.30
2018-07-31T17:41:46.804Z,48.70
2018-07-31T17:44:15.281Z,48.60
2018-07-31T17:46:43.641Z,48.70
2018-07-31T17:49:12.104Z,48.60
2018-07-31T17:51:40.664Z,48.10
2018-07-31T17:54:09.136Z,48.30
2018-07-31T17:59:06.189Z,48.30
2018-07-31T18:01:34.595Z,48.50
2018-07-31T18:04:03.058Z,48.10
2018-07-31T18:06:31.471Z,48.60
2018-07-31T18:08:59.947Z,48.20
2018-07-31T18:11:28.339Z,48.40
2018-07-31T18:13:56.749Z,48.60
2018-07-31T18:16:25.238Z,48.60
2018-07-31T18:18:53.764Z,48.80
2018-07-31T18:21:22.230Z,48.70
2018-07-31T18:23:50.851Z,49.50
2018-07-31T18:26:19.391Z,49.20
2018-07-31T18:28:47.835Z,48.80
2018-07-31T18:31:16.286Z,49.00
2018-07-31T18:33:45.702Z,48.90
2018-07-31T18:36:14.272Z,49.20
2018-07-31T18:38:44.128Z,49.30
2018-07-31T18:41:12.739Z,49.60
2018-07-31T18:43:41.052Z,49.70
2018-07-31T18:46:09.471Z,50.20
2018-07-31T18:48:38.077Z,50.30
2018-07-31T18:51:06.617Z,50.20
2018-07-31T18:53:35.048Z,50.00
2018-07-31T18:56:03.483Z,50.50
2018-07-31T18:58:31.951Z,50.40
2018-07-31T19:01:00.479Z,50.40
2018-07-31T19:03:29.066Z,50.60
2018-07-31T19:05:57.667Z,50.70
2018-07-31T19:08:26.272Z,51.10
2018-07-31T19:10:54.708Z,50.70
2018-07-31T19:13:23.218Z,51.00
2018-07-31T19:15:51.730Z,50.90
2018-07-31T19:18:20.126Z,51.40
2018-07-31T19:20:48.564Z,51.40
2018-07-31T19:23:17.159Z,52.00
2018-07-31T19:25:45.612Z,52.70
2018-07-31T19:28:14.406Z,52.60
2018-07-31T19:30:43.040Z,52.70
2018-07-31T19:33:11.467Z,53.70
2018-07-31T19:35:39.869Z,54.50
2018-07-31T19:38:08.611Z,54.40
2018-07-31T19:40:37.123Z,53.60
2018-07-31T19:43:05.555Z,53.70
2018-07-31T19:45:34.821Z,53.30
2018-07-31T19:48:03.372Z,53.70
2018-07-31T19:50:31.963Z,55.00
2018-07-31T19:53:00.483Z,55.00
2018-07-31T19:55:28.892Z,55.70
2018-07-31T19:57:57.325Z,56.30
2018-07-31T20:00:25.808Z,57.00
2018-07-31T20:02:54.231Z,57.80
2018-07-31T20:05:22.663Z,58.80
2018-07-31T20:07:53.384Z,59.60
2018-07-31T20:10:22.026Z,60.60
2018-07-31T20:12:50.527Z,61.20
2018-07-31T20:15:19.036Z,61.70
2018-07-31T20:17:47.445Z,62.00
2018-07-31T20:20:16.159Z,62.10
2018-07-31T20:22:44.573Z,62.50
2018-07-31T20:25:13.231Z,63.30
2018-07-31T20:27:41.706Z,63.40
2018-07-31T20:30:10.133Z,64.20
2018-07-31T20:32:38.628Z,64.80
2018-07-31T20:35:07.060Z,64.80
2018-07-31T20:37:35.495Z,64.10
2018-07-31T20:40:04.091Z,64.30
2018-07-31T20:42:32.502Z,64.90
2018-07-31T20:45:00.924Z,65.30
2018-07-31T20:47:29.343Z,65.70
2018-07-31T20:49:57.831Z,66.40
2018-07-31T20:52:26.313Z,67.10
2018-07-31T20:54:54.647Z,67.00
2018-07-31T20:57:23.107Z,67.00
2018-07-31T20:59:51.720Z,66.70
2018-07-31T21:02:20.069Z,67.00
2018-07-31T21:04:48.547Z,67.50
2018-07-31T21:07:17.103Z,67.50
2018-07-31T21:09:46.005Z,68.10
2018-07-31T21:12:14.901Z,68.30
2018-07-31T21:14:43.335Z,68.80
2018-07-31T21:17:11.768Z,69.20
2018-07-31T21:19:40.183Z,69.50
2018-07-31T21:22:08.580Z,69.70
2018-07-31T21:24:37.041Z,70.00
2018-07-31T21:27:05.461Z,70.30
2018-07-31T21:29:33.923Z,70.80
2018-07-31T21:32:02.379Z,70.60
2018-07-31T21:34:30.793Z,71.10
2018-07-31T21:36:59.187Z,71.50
2018-07-31T21:39:27.606Z,71.70
2018-07-31T21:41:56.101Z,71.70
2018-07-31T21:44:24.507Z,72.20
2018-07-31T21:46:53.331Z,71.90
2018-07-31T21:49:21.743Z,71.80
2018-07-31T21:51:50.252Z,72.00
2018-07-31T21:54:18.668Z,71.70
2018-07-31T21:56:47.080Z,71.90
2018-07-31T21:59:15.587Z,71.90
2018-07-31T22:01:44.078Z,72.10
2018-07-31T22:04:12.519Z,72.30
2018-07-31T22:06:40.924Z,72.40
2018-07-31T22:09:09.640Z,72.20
2018-07-31T22:11:38.051Z,71.90
2018-07-31T22:14:06.490Z,72.50
2018-07-31T22:16:34.992Z,71.80
2018-07-31T22:19:03.416Z,71.80
2018-07-31T22:21:31.880Z,71.50
2018-07-31T22:24:00.280Z,71.60
2018-07-31T22:26:28.760Z,71.40
2018-07-31T22:28:57.318Z,71.20
2018-07-31T22:31:25.744Z,71.30
2018-07-31T22:33:54.132Z,71.10
2018-07-31T22:36:22.548Z,71.40
2018-07-31T22:38:50.988Z,71.50
2018-07-31T22:41:19.416Z,71.70
2018-07-31T22:43:47.781Z,71.60
2018-07-31T22:46:16.204Z,71.60
2018-07-31T22:48:44.633Z,71.60
2018-07-31T22:51:13.164Z,71.60
2018-07-31T22:53:41.545Z,71.70
2018-07-31T22:56:09.944Z,71.40
2018-07-31T22:58:38.376Z,71.00
2018-07-31T23:01:06.865Z,71.00
2018-07-31T23:03:35.260Z,71.50
2018-07-31T23:06:04.264Z,71.10
2018-07-31T23:08:32.712Z,71.00
2018-07-31T23:11:01.126Z,71.30
2018-07-31T23:13:29.504Z,71.10
2018-07-31T23:15:57.966Z,71.00
2018-07-31T23:18:26.416Z,71.00
2018-07-31T23:20:54.830Z,70.70
2018-07-31T23:23:23.229Z,70.70
2018-07-31T23:25:51.640Z,70.70
2018-07-31T23:28:20.036Z,70.70
2018-07-31T23:30:48.460Z,70.70
2018-07-31T23:33:16.868Z,70.90
2018-07-31T23:35:45.278Z,70.50
2018-07-31T23:38:13.758Z,70.50
2018-07-31T23:40:42.149Z,70.60
2018-07-31T23:43:10.581Z,70.60
2018-07-31T23:45:39.082Z,70.60
2018-07-31T23:48:07.487Z,70.60
2018-07-31T23:50:35.900Z,70.50
2018-07-31T23:53:04.352Z,70.40
2018-07-31T23:55:32.885Z,70.20
2018-07-31T23:58:01.242Z,70.10
